sensor_id;sensor_type;location;lat;lon;timestamp;P1;durP1;ratioP1;P2;durP2;ratioP2
13660;SDS011;6903;49.480;11.102;2022-08-20T00:00:57;69.95;;;38.33;;
13660;SDS011;6903;49.480;11.102;2022-08-20T00:03:24;71.93;;;36.00;;
13660;SDS011;6903;49.480;11.102;2022-08-20T00:05:55;72.75;;;36.17;;
13660;SDS011;6903;49.480;11.102;2022-08-20T00:08:23;70.05;;;36.22;;
13660;SDS011;6903;49.480;11.102;2022-08-20T00:10:50;79.28;;;37.20;;
13660;SDS011;6903;49.480;11.102;2022-08-20T00:13:21;71.70;;;37.47;;
13660;SDS011;6903;49.480;11.102;2022-08-20T00:15:50;73.28;;;36.88;;
13660;SDS011;6903;49.480;11.102;2022-08-20T00:18:16;71.88;;;36.65;;
13660;SDS011;6903;49.480;11.102;2022-08-20T00:20:44;74.60;;;35.25;;
13660;SDS011;6903;49.480;11.102;2022-08-20T00:23:11;75.22;;;35.45;;
13660;SDS011;6903;49.480;11.102;2022-08-20T00:25:37;74.88;;;36.88;;
13660;SDS011;6903;49.480;11.102;2022-08-20T00:28:02;69.63;;;37.63;;
13660;SDS011;6903;49.480;11.102;2022-08-20T00:30:30;78.68;;;35.95;;
13660;SDS011;6903;49.480;11.102;2022-08-20T00:32:58;79.15;;;36.78;;
13660;SDS011;6903;49.480;11.102;2022-08-20T00:35:30;70.30;;;36.10;;
13660;SDS011;6903;49.480;11.102;2022-08-20T00:37:57;79.80;;;38.03;;
13660;SDS011;6903;49.480;11.102;2022-08-20T00:40:24;74.68;;;36.47;;
13660;SDS011;6903;49.480;11.102;2022-08-20T00:42:54;83.43;;;37.20;;
13660;SDS011;6903;49.480;11.102;2022-08-20T00:45:22;72.85;;;36.25;;
13660;SDS011;6903;49.480;11.102;2022-08-20T00:47:50;77.57;;;37.23;;
13660;SDS011;6903;49.480;11.102;2022-08-20T00:50:17;82.85;;;37.65;;
13660;SDS011;6903;49.480;11.102;2022-08-20T00:52:47;74.80;;;39.00;;
13660;SDS011;6903;49.480;11.102;2022-08-20T00:55:16;79.75;;;37.40;;
13660;SDS011;6903;49.480;11.102;2022-08-20T00:57:45;78.53;;;38.35;;
13660;SDS011;6903;49.480;11.102;2022-08-20T01:00:20;78.50;;;38.10;;
13660;SDS011;6903;49.480;11.102;2022-08-20T01:03:04;76.85;;;36.42;;
13660;SDS011;6903;49.480;11.102;2022-08-20T01:05:33;67.55;;;32.33;;
13660;SDS011;6903;49.480;11.102;2022-08-20T01:08:00;74.78;;;38.58;;
13660;SDS011;6903;49.480;11.102;2022-08-20T01:10:27;78.45;;;38.08;;
13660;SDS011;6903;49.480;11.102;2022-08-20T01:12:56;65.45;;;31.85;;
13660;SDS011;6903;49.480;11.102;2022-08-20T01:15:23;79.63;;;36.40;;
13660;SDS011;6903;49.480;11.102;2022-08-20T01:17:54;79.60;;;37.67;;
13660;SDS011;6903;49.480;11.102;2022-08-20T01:20:28;77.38;;;36.42;;
13660;SDS011;6903;49.480;11.102;2022-08-20T01:22:59;90.95;;;38.90;;
13660;SDS011;6903;49.480;11.102;2022-08-20T01:25:52;81.30;;;38.10;;
13660;SDS011;6903;49.480;11.102;2022-08-20T01:28:23;65.68;;;31.67;;
13660;SDS011;6903;49.480;11.102;2022-08-20T01:30:52;60.85;;;30.10;;
13660;SDS011;6903;49.480;11.102;2022-08-20T01:33:18;80.07;;;36.97;;
13660;SDS011;6903;49.480;11.102;2022-08-20T01:35:44;78.78;;;37.28;;
13660;SDS011;6903;49.480;11.102;2022-08-20T01:38:10;75.15;;;36.80;;
13660;SDS011;6903;49.480;11.102;2022-08-20T01:43:26;76.53;;;36.05;;
13660;SDS011;6903;49.480;11.102;2022-08-20T01:45:52;79.05;;;36.85;;
13660;SDS011;6903;49.480;11.102;2022-08-20T01:48:18;72.63;;;35.63;;
13660;SDS011;6903;49.480;11.102;2022-08-20T01:50:47;72.07;;;36.47;;
13660;SDS011;6903;49.480;11.102;2022-08-20T01:53:22;66.00;;;34.05;;
13660;SDS011;6903;49.480;11.102;2022-08-20T01:55:52;73.65;;;37.42;;
13660;SDS011;6903;49.480;11.102;2022-08-20T01:58:17;78.28;;;37.95;;
13660;SDS011;6903;49.480;11.102;2022-08-20T02:00:43;74.78;;;35.97;;
13660;SDS011;6903;49.480;11.102;2022-08-20T02:03:08;71.03;;;36.42;;
13660;SDS011;6903;49.480;11.102;2022-08-20T02:05:34;59.95;;;31.38;;
13660;SDS011;6903;49.480;11.102;2022-08-20T02:08:00;71.45;;;35.33;;
13660;SDS011;6903;49.480;11.102;2022-08-20T02:10:26;65.00;;;35.05;;
13660;SDS011;6903;49.480;11.102;2022-08-20T02:12:52;64.90;;;33.50;;
13660;SDS011;6903;49.480;11.102;2022-08-20T02:15:18;65.35;;;34.30;;
13660;SDS011;6903;49.480;11.102;2022-08-20T02:17:43;71.80;;;36.13;;
13660;SDS011;6903;49.480;11.102;2022-08-20T02:20:10;73.35;;;36.45;;
13660;SDS011;6903;49.480;11.102;2022-08-20T02:22:52;64.80;;;34.92;;
13660;SDS011;6903;49.480;11.102;2022-08-20T02:25:21;69.63;;;35.08;;
13660;SDS011;6903;49.480;11.102;2022-08-20T02:27:49;60.22;;;33.22;;
13660;SDS011;6903;49.480;11.102;2022-08-20T02:30:20;60.85;;;33.60;;
13660;SDS011;6903;49.480;11.102;2022-08-20T02:32:49;63.47;;;34.10;;
13660;SDS011;6903;49.480;11.102;2022-08-20T02:35:14;65.40;;;33.63;;
13660;SDS011;6903;49.480;11.102;2022-08-20T02:37:41;67.95;;;35.25;;
13660;SDS011;6903;49.480;11.102;2022-08-20T02:40:08;64.35;;;35.20;;
13660;SDS011;6903;49.480;11.102;2022-08-20T02:42:36;67.68;;;34.88;;
13660;SDS011;6903;49.480;11.102;2022-08-20T02:45:03;58.08;;;31.77;;
13660;SDS011;6903;49.480;11.102;2022-08-20T02:47:30;52.20;;;30.92;;
13660;SDS011;6903;49.480;11.102;2022-08-20T02:49:55;61.20;;;33.28;;
13660;SDS011;6903;49.480;11.102;2022-08-20T02:52:23;60.83;;;32.67;;
13660;SDS011;6903;49.480;11.102;2022-08-20T02:54:49;54.90;;;30.60;;
13660;SDS011;6903;49.480;11.102;2022-08-20T02:57:16;66.90;;;34.95;;
13660;SDS011;6903;49.480;11.102;2022-08-20T02:59:44;63.47;;;33.47;;
13660;SDS011;6903;49.480;11.102;2022-08-20T03:02:11;50.67;;;29.77;;
13660;SDS011;6903;49.480;11.102;2022-08-20T03:04:36;59.00;;;32.80;;
13660;SDS011;6903;49.480;11.102;2022-08-20T03:07:03;58.35;;;33.53;;
13660;SDS011;6903;49.480;11.102;2022-08-20T03:09:29;40.75;;;25.35;;
13660;SDS011;6903;49.480;11.102;2022-08-20T03:11:54;63.40;;;33.17;;
13660;SDS011;6903;49.480;11.102;2022-08-20T03:14:20;58.00;;;32.50;;
13660;SDS011;6903;49.480;11.102;2022-08-20T03:16:45;56.75;;;32.17;;
13660;SDS011;6903;49.480;11.102;2022-08-20T03:19:11;54.00;;;32.50;;
13660;SDS011;6903;49.480;11.102;2022-08-20T03:21:37;53.20;;;31.88;;
13660;SDS011;6903;49.480;11.102;2022-08-20T03:24:03;52.75;;;30.40;;
13660;SDS011;6903;49.480;11.102;2022-08-20T03:26:29;54.70;;;31.42;;
13660;SDS011;6903;49.480;11.102;2022-08-20T03:28:54;63.13;;;33.28;;
13660;SDS011;6903;49.480;11.102;2022-08-20T03:31:20;54.05;;;29.05;;
13660;SDS011;6903;49.480;11.102;2022-08-20T03:33:45;60.63;;;34.15;;
13660;SDS011;6903;49.480;11.102;2022-08-20T03:36:10;53.15;;;30.88;;
13660;SDS011;6903;49.480;11.102;2022-08-20T03:38:36;61.67;;;34.40;;
13660;SDS011;6903;49.480;11.102;2022-08-20T03:41:01;63.15;;;34.75;;
13660;SDS011;6903;49.480;11.102;2022-08-20T03:43:28;61.22;;;33.95;;
13660;SDS011;6903;49.480;11.102;2022-08-20T03:45:54;56.55;;;33.35;;
13660;SDS011;6903;49.480;11.102;2022-08-20T03:48:19;61.35;;;33.45;;
13660;SDS011;6903;49.480;11.102;2022-08-20T03:50:45;59.50;;;33.30;;
13660;SDS011;6903;49.480;11.102;2022-08-20T03:53:12;65.90;;;34.40;;
13660;SDS011;6903;49.480;11.102;2022-08-20T03:55:39;61.72;;;33.95;;
13660;SDS011;6903;49.480;11.102;2022-08-20T03:58:06;57.90;;;33.45;;
13660;SDS011;6903;49.480;11.102;2022-08-20T04:00:41;59.58;;;33.50;;
13660;SDS011;6903;49.480;11.102;2022-08-20T04:03:09;57.00;;;32.63;;
13660;SDS011;6903;49.480;11.102;2022-08-20T04:05:36;61.75;;;33.95;;
13660;SDS011;6903;49.480;11.102;2022-08-20T04:08:04;56.95;;;35.05;;
13660;SDS011;6903;49.480;11.102;2022-08-20T04:10:36;66.18;;;39.17;;
13660;SDS011;6903;49.480;11.102;2022-08-20T04:13:03;59.25;;;35.33;;
13660;SDS011;6903;49.480;11.102;2022-08-20T04:15:31;61.50;;;34.40;;
13660;SDS011;6903;49.480;11.102;2022-08-20T04:17:58;57.58;;;33.58;;
13660;SDS011;6903;49.480;11.102;2022-08-20T04:20:24;61.53;;;34.80;;
13660;SDS011;6903;49.480;11.102;2022-08-20T04:22:54;60.47;;;34.83;;
13660;SDS011;6903;49.480;11.102;2022-08-20T04:25:20;60.45;;;34.13;;
13660;SDS011;6903;49.480;11.102;2022-08-20T04:27:46;58.38;;;33.92;;
13660;SDS011;6903;49.480;11.102;2022-08-20T04:30:14;55.30;;;33.45;;
13660;SDS011;6903;49.480;11.102;2022-08-20T04:32:41;58.25;;;33.22;;
13660;SDS011;6903;49.480;11.102;2022-08-20T04:35:08;60.38;;;33.97;;
13660;SDS011;6903;49.480;11.102;2022-08-20T04:37:38;58.33;;;32.45;;
13660;SDS011;6903;49.480;11.102;2022-08-20T04:40:05;47.80;;;26.90;;
13660;SDS011;6903;49.480;11.102;2022-08-20T04:42:51;61.95;;;32.85;;
13660;SDS011;6903;49.480;11.102;2022-08-20T04:45:16;63.28;;;34.08;;
13660;SDS011;6903;49.480;11.102;2022-08-20T04:47:42;56.45;;;33.13;;
13660;SDS011;6903;49.480;11.102;2022-08-20T04:50:08;55.22;;;32.53;;
13660;SDS011;6903;49.480;11.102;2022-08-20T04:52:34;57.08;;;33.85;;
13660;SDS011;6903;49.480;11.102;2022-08-20T04:55:02;61.08;;;33.63;;
13660;SDS011;6903;49.480;11.102;2022-08-20T04:57:29;64.15;;;33.95;;
13660;SDS011;6903;49.480;11.102;2022-08-20T04:59:54;46.72;;;25.92;;
13660;SDS011;6903;49.480;11.102;2022-08-20T05:02:20;61.60;;;33.42;;
13660;SDS011;6903;49.480;11.102;2022-08-20T05:04:46;63.40;;;33.45;;
13660;SDS011;6903;49.480;11.102;2022-08-20T05:07:12;57.28;;;32.63;;
13660;SDS011;6903;49.480;11.102;2022-08-20T05:09:39;53.15;;;32.53;;
13660;SDS011;6903;49.480;11.102;2022-08-20T05:12:04;53.03;;;32.17;;
13660;SDS011;6903;49.480;11.102;2022-08-20T05:14:30;47.35;;;28.92;;
13660;SDS011;6903;49.480;11.102;2022-08-20T05:16:55;50.58;;;30.50;;
13660;SDS011;6903;49.480;11.102;2022-08-20T05:19:23;56.92;;;31.63;;
13660;SDS011;6903;49.480;11.102;2022-08-20T05:21:49;53.03;;;32.88;;
13660;SDS011;6903;49.480;11.102;2022-08-20T05:24:17;51.17;;;31.70;;
13660;SDS011;6903;49.480;11.102;2022-08-20T05:26:43;52.42;;;32.38;;
13660;SDS011;6903;49.480;11.102;2022-08-20T05:29:08;52.60;;;32.15;;
13660;SDS011;6903;49.480;11.102;2022-08-20T05:31:33;54.42;;;32.75;;
13660;SDS011;6903;49.480;11.102;2022-08-20T05:34:03;53.42;;;30.92;;
13660;SDS011;6903;49.480;11.102;2022-08-20T05:36:34;55.33;;;33.00;;
13660;SDS011;6903;49.480;11.102;2022-08-20T05:39:00;54.80;;;32.65;;
13660;SDS011;6903;49.480;11.102;2022-08-20T05:41:26;52.85;;;31.10;;
13660;SDS011;6903;49.480;11.102;2022-08-20T05:43:55;57.95;;;30.02;;
13660;SDS011;6903;49.480;11.102;2022-08-20T05:46:21;50.97;;;30.23;;
13660;SDS011;6903;49.480;11.102;2022-08-20T05:48:47;56.60;;;30.40;;
13660;SDS011;6903;49.480;11.102;2022-08-20T05:51:12;48.72;;;28.45;;
13660;SDS011;6903;49.480;11.102;2022-08-20T05:53:39;58.75;;;34.42;;
13660;SDS011;6903;49.480;11.102;2022-08-20T05:56:05;58.55;;;35.45;;
13660;SDS011;6903;49.480;11.102;2022-08-20T05:58:30;52.55;;;32.45;;
13660;SDS011;6903;49.480;11.102;2022-08-20T06:00:56;54.88;;;34.17;;
13660;SDS011;6903;49.480;11.102;2022-08-20T06:03:23;50.75;;;32.83;;
13660;SDS011;6903;49.480;11.102;2022-08-20T06:06:08;43.08;;;30.00;;
13660;SDS011;6903;49.480;11.102;2022-08-20T06:08:34;45.72;;;30.45;;
13660;SDS011;6903;49.480;11.102;2022-08-20T06:11:01;42.22;;;30.50;;
13660;SDS011;6903;49.480;11.102;2022-08-20T06:13:27;38.05;;;29.20;;
13660;SDS011;6903;49.480;11.102;2022-08-20T06:15:53;36.58;;;29.02;;
13660;SDS011;6903;49.480;11.102;2022-08-20T06:18:20;35.67;;;28.48;;
13660;SDS011;6903;49.480;11.102;2022-08-20T06:20:45;34.55;;;26.23;;
13660;SDS011;6903;49.480;11.102;2022-08-20T06:23:10;34.05;;;26.33;;
13660;SDS011;6903;49.480;11.102;2022-08-20T06:25:36;36.33;;;26.92;;
13660;SDS011;6903;49.480;11.102;2022-08-20T06:28:02;34.33;;;28.05;;
13660;SDS011;6903;49.480;11.102;2022-08-20T06:30:29;31.60;;;26.42;;
13660;SDS011;6903;49.480;11.102;2022-08-20T06:32:54;28.45;;;23.67;;
13660;SDS011;6903;49.480;11.102;2022-08-20T06:35:20;27.42;;;23.70;;
13660;SDS011;6903;49.480;11.102;2022-08-20T06:37:45;28.83;;;23.13;;
13660;SDS011;6903;49.480;11.102;2022-08-20T06:40:11;24.42;;;20.05;;
13660;SDS011;6903;49.480;11.102;2022-08-20T06:42:42;21.55;;;18.83;;
13660;SDS011;6903;49.480;11.102;2022-08-20T06:45:11;24.17;;;21.75;;
13660;SDS011;6903;49.480;11.102;2022-08-20T06:47:39;25.45;;;22.85;;
13660;SDS011;6903;49.480;11.102;2022-08-20T06:50:06;25.90;;;23.10;;
13660;SDS011;6903;49.480;11.102;2022-08-20T06:52:34;30.88;;;27.55;;
13660;SDS011;6903;49.480;11.102;2022-08-20T06:55:03;25.88;;;23.30;;
13660;SDS011;6903;49.480;11.102;2022-08-20T06:57:29;25.40;;;22.75;;
13660;SDS011;6903;49.480;11.102;2022-08-20T06:59:54;27.60;;;24.83;;
13660;SDS011;6903;49.480;11.102;2022-08-20T07:02:19;25.35;;;22.92;;
13660;SDS011;6903;49.480;11.102;2022-08-20T07:04:45;26.27;;;23.73;;
13660;SDS011;6903;49.480;11.102;2022-08-20T07:07:16;21.80;;;19.70;;
13660;SDS011;6903;49.480;11.102;2022-08-20T07:09:43;26.08;;;23.52;;
13660;SDS011;6903;49.480;11.102;2022-08-20T07:12:09;18.35;;;16.75;;
13660;SDS011;6903;49.480;11.102;2022-08-20T07:14:34;17.17;;;15.68;;
13660;SDS011;6903;49.480;11.102;2022-08-20T07:17:01;21.27;;;19.27;;
13660;SDS011;6903;49.480;11.102;2022-08-20T07:19:27;22.15;;;20.10;;
13660;SDS011;6903;49.480;11.102;2022-08-20T07:21:52;22.48;;;20.40;;
13660;SDS011;6903;49.480;11.102;2022-08-20T07:24:18;22.55;;;20.45;;
13660;SDS011;6903;49.480;11.102;2022-08-20T07:26:43;22.98;;;20.88;;
13660;SDS011;6903;49.480;11.102;2022-08-20T07:32:30;22.13;;;20.15;;
13660;SDS011;6903;49.480;11.102;2022-08-20T07:35:00;20.92;;;18.92;;
13660;SDS011;6903;49.480;11.102;2022-08-20T07:37:27;19.88;;;17.98;;
13660;SDS011;6903;49.480;11.102;2022-08-20T07:39:52;19.60;;;17.85;;
13660;SDS011;6903;49.480;11.102;2022-08-20T07:42:18;18.88;;;16.98;;
13660;SDS011;6903;49.480;11.102;2022-08-20T07:44:43;17.10;;;15.60;;
13660;SDS011;6903;49.480;11.102;2022-08-20T07:47:08;12.23;;;11.10;;
13660;SDS011;6903;49.480;11.102;2022-08-20T07:49:37;17.83;;;16.20;;
13660;SDS011;6903;49.480;11.102;2022-08-20T07:52:04;16.80;;;15.27;;
13660;SDS011;6903;49.480;11.102;2022-08-20T07:54:30;16.38;;;14.88;;
13660;SDS011;6903;49.480;11.102;2022-08-20T07:56:59;18.83;;;17.02;;
13660;SDS011;6903;49.480;11.102;2022-08-20T07:59:26;17.98;;;16.30;;
13660;SDS011;6903;49.480;11.102;2022-08-20T08:01:52;18.05;;;16.35;;
13660;SDS011;6903;49.480;11.102;2022-08-20T08:04:17;19.45;;;17.63;;
13660;SDS011;6903;49.480;11.102;2022-08-20T08:06:42;18.15;;;16.40;;
13660;SDS011;6903;49.480;11.102;2022-08-20T08:09:11;16.90;;;15.30;;
13660;SDS011;6903;49.480;11.102;2022-08-20T08:11:38;17.67;;;16.05;;
13660;SDS011;6903;49.480;11.102;2022-08-20T08:14:07;20.13;;;18.17;;
13660;SDS011;6903;49.480;11.102;2022-08-20T08:16:35;17.88;;;16.20;;
13660;SDS011;6903;49.480;11.102;2022-08-20T08:19:01;18.08;;;16.55;;
13660;SDS011;6903;49.480;11.102;2022-08-20T08:21:30;19.23;;;17.42;;
13660;SDS011;6903;49.480;11.102;2022-08-20T08:23:55;18.70;;;17.10;;
13660;SDS011;6903;49.480;11.102;2022-08-20T08:26:20;19.23;;;17.40;;
13660;SDS011;6903;49.480;11.102;2022-08-20T08:28:46;18.45;;;16.70;;
13660;SDS011;6903;49.480;11.102;2022-08-20T08:31:12;18.23;;;16.52;;
13660;SDS011;6903;49.480;11.102;2022-08-20T08:33:38;17.58;;;15.88;;
13660;SDS011;6903;49.480;11.102;2022-08-20T08:38:34;18.63;;;16.77;;
13660;SDS011;6903;49.480;11.102;2022-08-20T08:41:21;18.52;;;16.85;;
13660;SDS011;6903;49.480;11.102;2022-08-20T08:46:39;18.13;;;16.40;;
13660;SDS011;6903;49.480;11.102;2022-08-20T08:49:07;19.17;;;17.38;;
13660;SDS011;6903;49.480;11.102;2022-08-20T08:51:36;18.65;;;16.95;;
13660;SDS011;6903;49.480;11.102;2022-08-20T08:54:12;18.85;;;17.15;;
13660;SDS011;6903;49.480;11.102;2022-08-20T08:56:41;20.10;;;18.10;;
13660;SDS011;6903;49.480;11.102;2022-08-20T08:59:07;18.05;;;16.35;;
13660;SDS011;6903;49.480;11.102;2022-08-20T09:01:44;19.23;;;17.38;;
13660;SDS011;6903;49.480;11.102;2022-08-20T09:04:13;18.88;;;17.00;;
13660;SDS011;6903;49.480;11.102;2022-08-20T09:06:39;18.50;;;16.83;;
13660;SDS011;6903;49.480;11.102;2022-08-20T09:09:05;19.52;;;17.70;;
13660;SDS011;6903;49.480;11.102;2022-08-20T09:11:51;15.75;;;14.25;;
13660;SDS011;6903;49.480;11.102;2022-08-20T09:14:18;11.00;;;10.00;;
13660;SDS011;6903;49.480;11.102;2022-08-20T09:16:44;17.15;;;15.50;;
13660;SDS011;6903;49.480;11.102;2022-08-20T09:19:10;15.85;;;14.07;;
13660;SDS011;6903;49.480;11.102;2022-08-20T09:21:35;11.38;;;10.30;;
13660;SDS011;6903;49.480;11.102;2022-08-20T09:24:01;12.65;;;11.45;;
13660;SDS011;6903;49.480;11.102;2022-08-20T09:26:26;14.40;;;13.02;;
13660;SDS011;6903;49.480;11.102;2022-08-20T09:28:51;14.00;;;12.75;;
13660;SDS011;6903;49.480;11.102;2022-08-20T09:31:17;12.88;;;11.55;;
13660;SDS011;6903;49.480;11.102;2022-08-20T09:33:42;9.75;;;8.88;;
13660;SDS011;6903;49.480;11.102;2022-08-20T09:36:07;12.25;;;11.15;;
13660;SDS011;6903;49.480;11.102;2022-08-20T09:38:33;14.07;;;12.68;;
13660;SDS011;6903;49.480;11.102;2022-08-20T09:40:58;14.85;;;13.55;;
13660;SDS011;6903;49.480;11.102;2022-08-20T09:43:23;15.48;;;13.98;;
13660;SDS011;6903;49.480;11.102;2022-08-20T09:45:49;14.63;;;13.23;;
13660;SDS011;6903;49.480;11.102;2022-08-20T09:48:14;16.20;;;14.63;;
13660;SDS011;6903;49.480;11.102;2022-08-20T09:50:40;15.55;;;13.90;;
13660;SDS011;6903;49.480;11.102;2022-08-20T09:53:10;13.32;;;12.18;;
13660;SDS011;6903;49.480;11.102;2022-08-20T09:55:40;14.90;;;13.60;;
13660;SDS011;6903;49.480;11.102;2022-08-20T09:58:10;14.75;;;13.45;;
13660;SDS011;6903;49.480;11.102;2022-08-20T10:00:45;15.57;;;14.13;;
13660;SDS011;6903;49.480;11.102;2022-08-20T10:03:10;15.35;;;13.88;;
13660;SDS011;6903;49.480;11.102;2022-08-20T10:05:35;14.00;;;12.55;;
13660;SDS011;6903;49.480;11.102;2022-08-20T10:08:04;15.45;;;14.00;;
13660;SDS011;6903;49.480;11.102;2022-08-20T10:10:33;13.45;;;12.25;;
13660;SDS011;6903;49.480;11.102;2022-08-20T10:12:59;14.38;;;13.00;;
13660;SDS011;6903;49.480;11.102;2022-08-20T10:15:24;14.10;;;12.90;;
13660;SDS011;6903;49.480;11.102;2022-08-20T10:17:50;13.57;;;12.23;;
13660;SDS011;6903;49.480;11.102;2022-08-20T10:20:15;13.35;;;12.15;;
13660;SDS011;6903;49.480;11.102;2022-08-20T10:22:42;14.02;;;12.73;;
13660;SDS011;6903;49.480;11.102;2022-08-20T10:25:08;12.70;;;11.50;;
13660;SDS011;6903;49.480;11.102;2022-08-20T10:27:34;12.43;;;11.32;;
13660;SDS011;6903;49.480;11.102;2022-08-20T10:29:59;12.55;;;11.40;;
13660;SDS011;6903;49.480;11.102;2022-08-20T10:32:25;14.70;;;11.48;;
13660;SDS011;6903;49.480;11.102;2022-08-20T10:34:50;11.65;;;10.35;;
13660;SDS011;6903;49.480;11.102;2022-08-20T10:37:16;12.77;;;11.68;;
13660;SDS011;6903;49.480;11.102;2022-08-20T10:39:44;12.95;;;11.43;;
13660;SDS011;6903;49.480;11.102;2022-08-20T10:42:10;14.32;;;12.88;;
13660;SDS011;6903;49.480;11.102;2022-08-20T10:44:36;9.90;;;8.90;;
13660;SDS011;6903;49.480;11.102;2022-08-20T10:47:14;13.30;;;12.00;;
13660;SDS011;6903;49.480;11.102;2022-08-20T10:49:41;12.27;;;11.18;;
13660;SDS011;6903;49.480;11.102;2022-08-20T10:52:06;14.45;;;13.15;;
13660;SDS011;6903;49.480;11.102;2022-08-20T10:54:31;13.15;;;11.85;;
13660;SDS011;6903;49.480;11.102;2022-08-20T10:57:00;13.20;;;11.80;;
13660;SDS011;6903;49.480;11.102;2022-08-20T10:59:26;12.52;;;11.32;;
13660;SDS011;6903;49.480;11.102;2022-08-20T11:01:51;12.38;;;11.07;;
13660;SDS011;6903;49.480;11.102;2022-08-20T11:04:17;12.95;;;11.75;;
13660;SDS011;6903;49.480;11.102;2022-08-20T11:06:42;12.88;;;11.68;;
13660;SDS011;6903;49.480;11.102;2022-08-20T11:09:07;11.23;;;10.23;;
13660;SDS011;6903;49.480;11.102;2022-08-20T11:11:32;12.30;;;11.20;;
13660;SDS011;6903;49.480;11.102;2022-08-20T11:13:58;14.55;;;11.90;;
13660;SDS011;6903;49.480;11.102;2022-08-20T11:16:23;13.93;;;12.07;;
13660;SDS011;6903;49.480;11.102;2022-08-20T11:18:48;12.43;;;11.18;;
13660;SDS011;6903;49.480;11.102;2022-08-20T11:21:14;13.45;;;12.18;;
13660;SDS011;6903;49.480;11.102;2022-08-20T11:23:39;13.27;;;11.98;;
13660;SDS011;6903;49.480;11.102;2022-08-20T11:26:04;13.23;;;11.45;;
13660;SDS011;6903;49.480;11.102;2022-08-20T11:28:30;13.35;;;12.05;;
13660;SDS011;6903;49.480;11.102;2022-08-20T11:30:57;14.23;;;12.88;;
13660;SDS011;6903;49.480;11.102;2022-08-20T11:33:22;13.55;;;12.30;;
13660;SDS011;6903;49.480;11.102;2022-08-20T11:35:48;11.90;;;10.90;;
13660;SDS011;6903;49.480;11.102;2022-08-20T11:38:13;12.57;;;11.00;;
13660;SDS011;6903;49.480;11.102;2022-08-20T11:40:39;14.23;;;12.82;;
13660;SDS011;6903;49.480;11.102;2022-08-20T11:43:04;10.85;;;9.95;;
13660;SDS011;6903;49.480;11.102;2022-08-20T11:45:29;12.27;;;11.20;;
13660;SDS011;6903;49.480;11.102;2022-08-20T11:47:55;11.43;;;10.32;;
13660;SDS011;6903;49.480;11.102;2022-08-20T11:50:20;14.15;;;12.77;;
13660;SDS011;6903;49.480;11.102;2022-08-20T11:52:46;14.02;;;12.65;;
13660;SDS011;6903;49.480;11.102;2022-08-20T11:55:12;13.40;;;12.10;;
13660;SDS011;6903;49.480;11.102;2022-08-20T11:57:43;12.52;;;10.95;;
13660;SDS011;6903;49.480;11.102;2022-08-20T12:00:16;12.57;;;11.07;;
13660;SDS011;6903;49.480;11.102;2022-08-20T12:02:43;14.20;;;12.80;;
13660;SDS011;6903;49.480;11.102;2022-08-20T12:05:09;13.88;;;12.48;;
13660;SDS011;6903;49.480;11.102;2022-08-20T12:07:35;14.68;;;13.23;;
13660;SDS011;6903;49.480;11.102;2022-08-20T12:10:01;14.48;;;13.02;;
13660;SDS011;6903;49.480;11.102;2022-08-20T12:12:28;14.73;;;13.38;;
13660;SDS011;6903;49.480;11.102;2022-08-20T12:14:53;13.40;;;12.10;;
13660;SDS011;6903;49.480;11.102;2022-08-20T12:17:20;13.98;;;12.60;;
13660;SDS011;6903;49.480;11.102;2022-08-20T12:19:48;13.88;;;11.35;;
13660;SDS011;6903;49.480;11.102;2022-08-20T12:22:15;13.70;;;12.40;;
13660;SDS011;6903;49.480;11.102;2022-08-20T12:24:41;13.00;;;11.77;;
13660;SDS011;6903;49.480;11.102;2022-08-20T12:27:07;13.02;;;11.82;;
13660;SDS011;6903;49.480;11.102;2022-08-20T12:29:35;13.38;;;12.07;;
13660;SDS011;6903;49.480;11.102;2022-08-20T12:32:01;13.07;;;11.60;;
13660;SDS011;6903;49.480;11.102;2022-08-20T12:34:29;13.80;;;12.40;;
13660;SDS011;6903;49.480;11.102;2022-08-20T12:37:04;15.18;;;13.77;;
13660;SDS011;6903;49.480;11.102;2022-08-20T12:39:32;15.32;;;13.73;;
13660;SDS011;6903;49.480;11.102;2022-08-20T12:42:01;13.95;;;12.50;;
13660;SDS011;6903;49.480;11.102;2022-08-20T12:44:27;17.02;;;13.57;;
13660;SDS011;6903;49.480;11.102;2022-08-20T12:47:13;13.77;;;12.50;;
13660;SDS011;6903;49.480;11.102;2022-08-20T12:49:41;14.23;;;12.82;;
13660;SDS011;6903;49.480;11.102;2022-08-20T12:52:09;12.85;;;11.65;;
13660;SDS011;6903;49.480;11.102;2022-08-20T12:54:36;15.27;;;12.00;;
13660;SDS011;6903;49.480;11.102;2022-08-20T12:57:02;15.65;;;13.20;;
13660;SDS011;6903;49.480;11.102;2022-08-20T12:59:27;13.73;;;12.27;;
13660;SDS011;6903;49.480;11.102;2022-08-20T13:01:52;11.30;;;10.20;;
13660;SDS011;6903;49.480;11.102;2022-08-20T13:04:18;9.45;;;8.55;;
13660;SDS011;6903;49.480;11.102;2022-08-20T13:06:44;11.75;;;10.57;;
13660;SDS011;6903;49.480;11.102;2022-08-20T13:09:10;11.52;;;10.35;;
13660;SDS011;6903;49.480;11.102;2022-08-20T13:11:36;12.95;;;10.80;;
13660;SDS011;6903;49.480;11.102;2022-08-20T13:14:03;11.63;;;9.93;;
13660;SDS011;6903;49.480;11.102;2022-08-20T13:16:29;9.32;;;8.43;;
13660;SDS011;6903;49.480;11.102;2022-08-20T13:18:54;7.90;;;7.20;;
13660;SDS011;6903;49.480;11.102;2022-08-20T13:21:20;8.18;;;7.38;;
13660;SDS011;6903;49.480;11.102;2022-08-20T13:23:45;9.80;;;8.90;;
13660;SDS011;6903;49.480;11.102;2022-08-20T13:26:10;15.93;;;11.60;;
13660;SDS011;6903;49.480;11.102;2022-08-20T13:28:36;12.57;;;11.27;;
13660;SDS011;6903;49.480;11.102;2022-08-20T13:31:01;13.15;;;9.85;;
13660;SDS011;6903;49.480;11.102;2022-08-20T13:33:27;10.15;;;9.15;;
13660;SDS011;6903;49.480;11.102;2022-08-20T13:35:53;12.38;;;11.27;;
13660;SDS011;6903;49.480;11.102;2022-08-20T13:38:19;9.45;;;8.65;;
13660;SDS011;6903;49.480;11.102;2022-08-20T13:40:45;10.57;;;9.50;;
13660;SDS011;6903;49.480;11.102;2022-08-20T13:43:11;9.70;;;8.88;;
13660;SDS011;6903;49.480;11.102;2022-08-20T13:45:36;11.35;;;10.15;;
13660;SDS011;6903;49.480;11.102;2022-08-20T13:48:02;9.32;;;8.38;;
13660;SDS011;6903;49.480;11.102;2022-08-20T13:50:28;8.77;;;7.97;;
13660;SDS011;6903;49.480;11.102;2022-08-20T13:52:54;7.85;;;7.15;;
13660;SDS011;6903;49.480;11.102;2022-08-20T13:55:20;8.88;;;7.97;;
13660;SDS011;6903;49.480;11.102;2022-08-20T13:57:47;7.03;;;6.32;;
13660;SDS011;6903;49.480;11.102;2022-08-20T14:00:14;10.70;;;9.60;;
13660;SDS011;6903;49.480;11.102;2022-08-20T14:02:42;11.15;;;9.20;;
13660;SDS011;6903;49.480;11.102;2022-08-20T14:05:08;6.65;;;6.05;;
13660;SDS011;6903;49.480;11.102;2022-08-20T14:07:34;7.63;;;6.95;;
13660;SDS011;6903;49.480;11.102;2022-08-20T14:10:02;9.35;;;8.52;;
13660;SDS011;6903;49.480;11.102;2022-08-20T14:12:32;9.90;;;8.90;;
13660;SDS011;6903;49.480;11.102;2022-08-20T14:14:58;6.32;;;5.75;;
13660;SDS011;6903;49.480;11.102;2022-08-20T14:17:25;7.63;;;7.03;;
13660;SDS011;6903;49.480;11.102;2022-08-20T14:19:53;7.95;;;7.13;;
13660;SDS011;6903;49.480;11.102;2022-08-20T14:22:20;7.63;;;6.93;;
13660;SDS011;6903;49.480;11.102;2022-08-20T14:24:46;7.32;;;6.63;;
13660;SDS011;6903;49.480;11.102;2022-08-20T14:27:13;5.85;;;5.35;;
13660;SDS011;6903;49.480;11.102;2022-08-20T14:29:41;6.57;;;5.97;;
13660;SDS011;6903;49.480;11.102;2022-08-20T14:32:07;5.90;;;5.30;;
13660;SDS011;6903;49.480;11.102;2022-08-20T14:34:33;7.43;;;6.72;;